sensor_id;sensor_type;location;lat;lon;timestamp;P1;durP1;ratioP1;P2;durP2;ratioP2
5961;SDS011;3007;50.770;0.250;2023-08-06T00:01:58;8.77;;;5.23;;
5961;SDS011;3007;50.770;0.250;2023-08-06T00:04:25;7.03;;;5.50;;
5961;SDS011;3007;50.770;0.250;2023-08-06T00:06:52;5.90;;;5.30;;
5961;SDS011;3007;50.770;0.250;2023-08-06T00:09:19;7.23;;;5.20;;
5961;SDS011;3007;50.770;0.250;2023-08-06T00:11:46;8.37;;;5.33;;
5961;SDS011;3007;50.770;0.250;2023-08-06T00:14:15;5.63;;;5.00;;
5961;SDS011;3007;50.770;0.250;2023-08-06T00:16:43;8.20;;;5.23;;
5961;SDS011;3007;50.770;0.250;2023-08-06T00:19:10;8.70;;;5.20;;
5961;SDS011;3007;50.770;0.250;2023-08-06T00:21:37;9.80;;;4.80;;
5961;SDS011;3007;50.770;0.250;2023-08-06T00:24:04;5.73;;;4.33;;
5961;SDS011;3007;50.770;0.250;2023-08-06T00:26:32;5.10;;;4.27;;
5961;SDS011;3007;50.770;0.250;2023-08-06T00:28:58;4.43;;;4.03;;
5961;SDS011;3007;50.770;0.250;2023-08-06T00:31:27;6.30;;;4.30;;
5961;SDS011;3007;50.770;0.250;2023-08-06T00:33:54;4.77;;;3.93;;
5961;SDS011;3007;50.770;0.250;2023-08-06T00:36:21;5.20;;;3.70;;
5961;SDS011;3007;50.770;0.250;2023-08-06T00:38:48;5.07;;;3.90;;
5961;SDS011;3007;50.770;0.250;2023-08-06T00:41:15;4.83;;;3.57;;
5961;SDS011;3007;50.770;0.250;2023-08-06T00:43:42;5.60;;;3.70;;
5961;SDS011;3007;50.770;0.250;2023-08-06T00:46:09;5.20;;;3.30;;
5961;SDS011;3007;50.770;0.250;2023-08-06T00:48:38;4.83;;;3.47;;
5961;SDS011;3007;50.770;0.250;2023-08-06T00:51:06;6.03;;;3.27;;
5961;SDS011;3007;50.770;0.250;2023-08-06T00:53:34;4.00;;;3.03;;
5961;SDS011;3007;50.770;0.250;2023-08-06T00:56:01;3.20;;;2.83;;
5961;SDS011;3007;50.770;0.250;2023-08-06T00:58:28;3.57;;;3.27;;
5961;SDS011;3007;50.770;0.250;2023-08-06T01:00:55;3.53;;;2.70;;
5961;SDS011;3007;50.770;0.250;2023-08-06T01:03:23;4.97;;;3.23;;
5961;SDS011;3007;50.770;0.250;2023-08-06T01:05:51;7.50;;;2.70;;
5961;SDS011;3007;50.770;0.250;2023-08-06T01:08:21;3.50;;;2.47;;
5961;SDS011;3007;50.770;0.250;2023-08-06T01:11:00;4.50;;;2.83;;
5961;SDS011;3007;50.770;0.250;2023-08-06T01:13:37;3.67;;;2.57;;
5961;SDS011;3007;50.770;0.250;2023-08-06T01:16:08;4.07;;;2.60;;
5961;SDS011;3007;50.770;0.250;2023-08-06T01:18:37;4.13;;;2.60;;
5961;SDS011;3007;50.770;0.250;2023-08-06T01:21:08;2.90;;;2.13;;
5961;SDS011;3007;50.770;0.250;2023-08-06T01:23:35;2.87;;;2.13;;
5961;SDS011;3007;50.770;0.250;2023-08-06T01:26:04;4.47;;;2.20;;
5961;SDS011;3007;50.770;0.250;2023-08-06T01:28:39;5.23;;;2.40;;
5961;SDS011;3007;50.770;0.250;2023-08-06T01:31:10;3.23;;;2.27;;
5961;SDS011;3007;50.770;0.250;2023-08-06T01:33:43;2.70;;;1.90;;
5961;SDS011;3007;50.770;0.250;2023-08-06T01:36:15;3.93;;;1.93;;
5961;SDS011;3007;50.770;0.250;2023-08-06T01:38:43;3.20;;;2.10;;
5961;SDS011;3007;50.770;0.250;2023-08-06T01:41:09;2.13;;;1.70;;
5961;SDS011;3007;50.770;0.250;2023-08-06T01:43:36;2.50;;;2.00;;
5961;SDS011;3007;50.770;0.250;2023-08-06T01:46:03;2.47;;;1.80;;
5961;SDS011;3007;50.770;0.250;2023-08-06T01:48:30;3.60;;;1.70;;
5961;SDS011;3007;50.770;0.250;2023-08-06T01:50:57;3.73;;;1.80;;
5961;SDS011;3007;50.770;0.250;2023-08-06T01:53:26;3.73;;;2.00;;
5961;SDS011;3007;50.770;0.250;2023-08-06T01:55:53;3.47;;;2.03;;
5961;SDS011;3007;50.770;0.250;2023-08-06T01:58:20;2.57;;;1.83;;
5961;SDS011;3007;50.770;0.250;2023-08-06T02:00:47;5.70;;;1.90;;
5961;SDS011;3007;50.770;0.250;2023-08-06T02:03:13;3.40;;;1.97;;
5961;SDS011;3007;50.770;0.250;2023-08-06T02:05:40;2.13;;;1.70;;
5961;SDS011;3007;50.770;0.250;2023-08-06T02:08:08;2.57;;;2.00;;
5961;SDS011;3007;50.770;0.250;2023-08-06T02:10:36;5.30;;;1.93;;
5961;SDS011;3007;50.770;0.250;2023-08-06T02:13:03;4.33;;;2.00;;
5961;SDS011;3007;50.770;0.250;2023-08-06T02:15:30;5.80;;;2.20;;
5961;SDS011;3007;50.770;0.250;2023-08-06T02:17:58;6.50;;;2.00;;
5961;SDS011;3007;50.770;0.250;2023-08-06T02:20:25;4.27;;;2.03;;
5961;SDS011;3007;50.770;0.250;2023-08-06T02:22:52;3.60;;;2.17;;
5961;SDS011;3007;50.770;0.250;2023-08-06T02:25:19;3.63;;;2.03;;
5961;SDS011;3007;50.770;0.250;2023-08-06T02:27:47;6.73;;;2.33;;
5961;SDS011;3007;50.770;0.250;2023-08-06T02:30:14;3.27;;;2.00;;
5961;SDS011;3007;50.770;0.250;2023-08-06T02:32:41;2.73;;;2.40;;
5961;SDS011;3007;50.770;0.250;2023-08-06T02:35:08;4.57;;;2.07;;
5961;SDS011;3007;50.770;0.250;2023-08-06T02:37:35;3.53;;;2.20;;
5961;SDS011;3007;50.770;0.250;2023-08-06T02:40:02;6.43;;;2.50;;
5961;SDS011;3007;50.770;0.250;2023-08-06T02:42:29;3.73;;;2.27;;
5961;SDS011;3007;50.770;0.250;2023-08-06T02:44:58;4.33;;;2.53;;
5961;SDS011;3007;50.770;0.250;2023-08-06T02:47:25;5.10;;;2.77;;
5961;SDS011;3007;50.770;0.250;2023-08-06T02:49:52;3.17;;;2.47;;
5961;SDS011;3007;50.770;0.250;2023-08-06T02:52:19;4.77;;;2.97;;
5961;SDS011;3007;50.770;0.250;2023-08-06T02:54:46;5.30;;;3.00;;
5961;SDS011;3007;50.770;0.250;2023-08-06T02:57:13;4.20;;;3.17;;
5961;SDS011;3007;50.770;0.250;2023-08-06T02:59:40;5.07;;;2.87;;
5961;SDS011;3007;50.770;0.250;2023-08-06T03:02:08;9.63;;;2.97;;
5961;SDS011;3007;50.770;0.250;2023-08-06T03:04:35;5.70;;;2.90;;
5961;SDS011;3007;50.770;0.250;2023-08-06T03:07:03;4.93;;;3.20;;
5961;SDS011;3007;50.770;0.250;2023-08-06T03:09:30;4.23;;;3.10;;
5961;SDS011;3007;50.770;0.250;2023-08-06T03:11:56;4.13;;;2.47;;
5961;SDS011;3007;50.770;0.250;2023-08-06T03:14:23;4.50;;;2.53;;
5961;SDS011;3007;50.770;0.250;2023-08-06T03:16:50;7.47;;;3.10;;
5961;SDS011;3007;50.770;0.250;2023-08-06T03:19:19;3.57;;;3.00;;
5961;SDS011;3007;50.770;0.250;2023-08-06T03:21:46;3.90;;;3.20;;
5961;SDS011;3007;50.770;0.250;2023-08-06T03:24:14;4.73;;;3.10;;
5961;SDS011;3007;50.770;0.250;2023-08-06T03:26:41;4.47;;;3.27;;
5961;SDS011;3007;50.770;0.250;2023-08-06T03:29:08;5.63;;;3.20;;
5961;SDS011;3007;50.770;0.250;2023-08-06T03:31:35;4.10;;;3.00;;
5961;SDS011;3007;50.770;0.250;2023-08-06T03:34:02;4.67;;;3.17;;
5961;SDS011;3007;50.770;0.250;2023-08-06T03:36:30;6.40;;;3.60;;
5961;SDS011;3007;50.770;0.250;2023-08-06T03:38:57;8.37;;;3.20;;
5961;SDS011;3007;50.770;0.250;2023-08-06T03:41:24;5.73;;;3.10;;
5961;SDS011;3007;50.770;0.250;2023-08-06T03:43:51;6.17;;;3.50;;
5961;SDS011;3007;50.770;0.250;2023-08-06T03:46:18;4.53;;;2.73;;
5961;SDS011;3007;50.770;0.250;2023-08-06T03:48:45;3.10;;;2.53;;
5961;SDS011;3007;50.770;0.250;2023-08-06T03:51:12;7.97;;;3.60;;
5961;SDS011;3007;50.770;0.250;2023-08-06T03:53:40;4.97;;;3.60;;
5961;SDS011;3007;50.770;0.250;2023-08-06T03:56:07;5.57;;;3.30;;
5961;SDS011;3007;50.770;0.250;2023-08-06T03:58:34;7.23;;;3.30;;
5961;SDS011;3007;50.770;0.250;2023-08-06T04:01:01;9.93;;;3.60;;
5961;SDS011;3007;50.770;0.250;2023-08-06T04:03:29;6.70;;;4.03;;
5961;SDS011;3007;50.770;0.250;2023-08-06T04:05:56;6.53;;;3.07;;
5961;SDS011;3007;50.770;0.250;2023-08-06T04:08:23;6.27;;;4.13;;
5961;SDS011;3007;50.770;0.250;2023-08-06T04:10:52;7.13;;;3.33;;
5961;SDS011;3007;50.770;0.250;2023-08-06T04:13:19;5.40;;;3.27;;
5961;SDS011;3007;50.770;0.250;2023-08-06T04:15:46;4.97;;;3.20;;
5961;SDS011;3007;50.770;0.250;2023-08-06T04:18:13;6.93;;;3.30;;
5961;SDS011;3007;50.770;0.250;2023-08-06T04:20:43;5.37;;;3.20;;
5961;SDS011;3007;50.770;0.250;2023-08-06T04:23:11;5.93;;;3.30;;
5961;SDS011;3007;50.770;0.250;2023-08-06T04:25:38;6.27;;;2.90;;
5961;SDS011;3007;50.770;0.250;2023-08-06T04:28:06;4.67;;;3.13;;
5961;SDS011;3007;50.770;0.250;2023-08-06T04:30:34;5.27;;;3.37;;
5961;SDS011;3007;50.770;0.250;2023-08-06T04:33:00;6.40;;;3.20;;
5961;SDS011;3007;50.770;0.250;2023-08-06T04:35:27;6.90;;;3.33;;
5961;SDS011;3007;50.770;0.250;2023-08-06T04:37:54;5.33;;;3.50;;
5961;SDS011;3007;50.770;0.250;2023-08-06T04:40:22;4.83;;;3.23;;
5961;SDS011;3007;50.770;0.250;2023-08-06T04:42:49;8.47;;;3.33;;
5961;SDS011;3007;50.770;0.250;2023-08-06T04:45:17;6.83;;;3.20;;
5961;SDS011;3007;50.770;0.250;2023-08-06T04:47:45;5.03;;;3.27;;
5961;SDS011;3007;50.770;0.250;2023-08-06T04:50:12;6.33;;;3.10;;
5961;SDS011;3007;50.770;0.250;2023-08-06T04:52:39;5.77;;;2.77;;
5961;SDS011;3007;50.770;0.250;2023-08-06T04:55:06;4.37;;;2.93;;
5961;SDS011;3007;50.770;0.250;2023-08-06T04:57:34;5.30;;;3.70;;
5961;SDS011;3007;50.770;0.250;2023-08-06T05:00:01;3.57;;;2.63;;
5961;SDS011;3007;50.770;0.250;2023-08-06T05:02:31;3.83;;;2.70;;
5961;SDS011;3007;50.770;0.250;2023-08-06T05:04:59;3.60;;;3.00;;
5961;SDS011;3007;50.770;0.250;2023-08-06T05:07:26;4.43;;;2.70;;
5961;SDS011;3007;50.770;0.250;2023-08-06T05:09:53;4.63;;;2.77;;
5961;SDS011;3007;50.770;0.250;2023-08-06T05:12:20;5.90;;;3.17;;
5961;SDS011;3007;50.770;0.250;2023-08-06T05:14:47;7.80;;;3.17;;
5961;SDS011;3007;50.770;0.250;2023-08-06T05:17:14;4.77;;;3.30;;
5961;SDS011;3007;50.770;0.250;2023-08-06T05:19:43;3.47;;;2.30;;
5961;SDS011;3007;50.770;0.250;2023-08-06T05:22:11;11.52;;;2.55;;
5961;SDS011;3007;50.770;0.250;2023-08-06T05:24:38;4.72;;;2.35;;
5961;SDS011;3007;50.770;0.250;2023-08-06T05:27:06;3.90;;;2.40;;
5961;SDS011;3007;50.770;0.250;2023-08-06T05:29:33;5.03;;;2.53;;
5961;SDS011;3007;50.770;0.250;2023-08-06T05:31:59;3.00;;;2.53;;
5961;SDS011;3007;50.770;0.250;2023-08-06T05:34:26;3.20;;;2.28;;
5961;SDS011;3007;50.770;0.250;2023-08-06T05:36:55;4.38;;;2.58;;
5961;SDS011;3007;50.770;0.250;2023-08-06T05:39:22;8.25;;;2.38;;
5961;SDS011;3007;50.770;0.250;2023-08-06T05:41:49;7.63;;;2.60;;
5961;SDS011;3007;50.770;0.250;2023-08-06T05:44:19;3.67;;;2.50;;
5961;SDS011;3007;50.770;0.250;2023-08-06T05:46:46;3.92;;;2.50;;
5961;SDS011;3007;50.770;0.250;2023-08-06T05:49:13;4.20;;;2.28;;
5961;SDS011;3007;50.770;0.250;2023-08-06T05:51:41;3.88;;;2.13;;
5961;SDS011;3007;50.770;0.250;2023-08-06T05:54:09;4.03;;;2.22;;
5961;SDS011;3007;50.770;0.250;2023-08-06T05:56:36;2.80;;;2.03;;
5961;SDS011;3007;50.770;0.250;2023-08-06T05:59:03;3.28;;;2.28;;
5961;SDS011;3007;50.770;0.250;2023-08-06T06:01:30;3.72;;;2.20;;
5961;SDS011;3007;50.770;0.250;2023-08-06T06:03:57;4.28;;;2.30;;
5961;SDS011;3007;50.770;0.250;2023-08-06T06:06:24;3.78;;;2.72;;
5961;SDS011;3007;50.770;0.250;2023-08-06T06:08:51;3.92;;;2.25;;
5961;SDS011;3007;50.770;0.250;2023-08-06T06:11:19;3.85;;;2.45;;
5961;SDS011;3007;50.770;0.250;2023-08-06T06:13:47;3.10;;;1.90;;
5961;SDS011;3007;50.770;0.250;2023-08-06T06:16:16;3.92;;;2.10;;
5961;SDS011;3007;50.770;0.250;2023-08-06T06:18:43;5.68;;;2.50;;
5961;SDS011;3007;50.770;0.250;2023-08-06T06:21:10;2.38;;;2.00;;
5961;SDS011;3007;50.770;0.250;2023-08-06T06:23:38;2.92;;;2.22;;
5961;SDS011;3007;50.770;0.250;2023-08-06T06:26:05;4.60;;;2.30;;
5961;SDS011;3007;50.770;0.250;2023-08-06T06:28:33;5.40;;;2.53;;
5961;SDS011;3007;50.770;0.250;2023-08-06T06:31:00;2.25;;;1.90;;
5961;SDS011;3007;50.770;0.250;2023-08-06T06:33:29;2.83;;;2.00;;
5961;SDS011;3007;50.770;0.250;2023-08-06T06:35:56;3.53;;;1.88;;
5961;SDS011;3007;50.770;0.250;2023-08-06T06:38:23;2.60;;;2.00;;
5961;SDS011;3007;50.770;0.250;2023-08-06T06:40:53;3.88;;;2.17;;
5961;SDS011;3007;50.770;0.250;2023-08-06T06:43:20;3.35;;;2.20;;
5961;SDS011;3007;50.770;0.250;2023-08-06T06:45:52;3.92;;;2.50;;
5961;SDS011;3007;50.770;0.250;2023-08-06T06:48:19;4.03;;;2.03;;
5961;SDS011;3007;50.770;0.250;2023-08-06T06:50:46;4.90;;;2.15;;
5961;SDS011;3007;50.770;0.250;2023-08-06T06:53:14;2.95;;;1.77;;
5961;SDS011;3007;50.770;0.250;2023-08-06T06:55:41;2.95;;;2.00;;
5961;SDS011;3007;50.770;0.250;2023-08-06T06:58:08;3.25;;;1.77;;
5961;SDS011;3007;50.770;0.250;2023-08-06T07:00:35;3.65;;;2.05;;
5961;SDS011;3007;50.770;0.250;2023-08-06T07:03:03;2.28;;;1.90;;
5961;SDS011;3007;50.770;0.250;2023-08-06T07:05:30;2.88;;;2.00;;
5961;SDS011;3007;50.770;0.250;2023-08-06T07:07:57;2.55;;;2.20;;
5961;SDS011;3007;50.770;0.250;2023-08-06T07:10:26;5.53;;;2.08;;
5961;SDS011;3007;50.770;0.250;2023-08-06T07:12:52;3.00;;;1.95;;
5961;SDS011;3007;50.770;0.250;2023-08-06T07:15:19;2.97;;;2.45;;
5961;SDS011;3007;50.770;0.250;2023-08-06T07:17:46;3.53;;;1.90;;
5961;SDS011;3007;50.770;0.250;2023-08-06T07:20:15;3.50;;;2.65;;
5961;SDS011;3007;50.770;0.250;2023-08-06T07:22:42;2.97;;;2.30;;
5961;SDS011;3007;50.770;0.250;2023-08-06T07:25:09;2.45;;;2.00;;
5961;SDS011;3007;50.770;0.250;2023-08-06T07:27:37;3.83;;;2.17;;
5961;SDS011;3007;50.770;0.250;2023-08-06T07:30:05;2.97;;;2.08;;
5961;SDS011;3007;50.770;0.250;2023-08-06T07:32:33;2.88;;;2.38;;
5961;SDS011;3007;50.770;0.250;2023-08-06T07:35:00;4.20;;;2.10;;
5961;SDS011;3007;50.770;0.250;2023-08-06T07:37:29;3.67;;;2.17;;
5961;SDS011;3007;50.770;0.250;2023-08-06T07:39:56;4.07;;;2.40;;
5961;SDS011;3007;50.770;0.250;2023-08-06T07:42:24;2.78;;;2.13;;
5961;SDS011;3007;50.770;0.250;2023-08-06T07:44:51;2.85;;;2.10;;
5961;SDS011;3007;50.770;0.250;2023-08-06T07:47:21;2.47;;;2.10;;
5961;SDS011;3007;50.770;0.250;2023-08-06T07:49:48;4.88;;;2.58;;
5961;SDS011;3007;50.770;0.250;2023-08-06T07:52:15;3.05;;;2.17;;
5961;SDS011;3007;50.770;0.250;2023-08-06T07:54:43;4.40;;;2.17;;
5961;SDS011;3007;50.770;0.250;2023-08-06T07:57:10;3.55;;;2.20;;
5961;SDS011;3007;50.770;0.250;2023-08-06T07:59:38;3.88;;;2.20;;
5961;SDS011;3007;50.770;0.250;2023-08-06T08:02:06;4.72;;;1.98;;
5961;SDS011;3007;50.770;0.250;2023-08-06T08:04:33;2.28;;;1.90;;
5961;SDS011;3007;50.770;0.250;2023-08-06T08:07:01;2.40;;;1.92;;
5961;SDS011;3007;50.770;0.250;2023-08-06T08:09:28;2.72;;;2.08;;
5961;SDS011;3007;50.770;0.250;2023-08-06T08:11:56;3.53;;;2.53;;
5961;SDS011;3007;50.770;0.250;2023-08-06T08:14:26;6.22;;;2.40;;
5961;SDS011;3007;50.770;0.250;2023-08-06T08:16:54;2.90;;;2.05;;
5961;SDS011;3007;50.770;0.250;2023-08-06T08:19:21;4.10;;;2.10;;
5961;SDS011;3007;50.770;0.250;2023-08-06T08:21:47;3.05;;;2.08;;
5961;SDS011;3007;50.770;0.250;2023-08-06T08:24:15;3.85;;;2.30;;
5961;SDS011;3007;50.770;0.250;2023-08-06T08:26:44;2.42;;;2.00;;
5961;SDS011;3007;50.770;0.250;2023-08-06T08:29:13;2.35;;;2.03;;
5961;SDS011;3007;50.770;0.250;2023-08-06T08:31:40;2.55;;;1.90;;
5961;SDS011;3007;50.770;0.250;2023-08-06T08:34:08;3.63;;;1.95;;
5961;SDS011;3007;50.770;0.250;2023-08-06T08:36:36;3.08;;;1.92;;
5961;SDS011;3007;50.770;0.250;2023-08-06T08:39:03;3.22;;;2.03;;
5961;SDS011;3007;50.770;0.250;2023-08-06T08:41:30;2.40;;;1.90;;
5961;SDS011;3007;50.770;0.250;2023-08-06T08:43:58;3.08;;;2.00;;
5961;SDS011;3007;50.770;0.250;2023-08-06T08:46:27;3.25;;;2.20;;
5961;SDS011;3007;50.770;0.250;2023-08-06T08:48:57;4.82;;;2.08;;
5961;SDS011;3007;50.770;0.250;2023-08-06T08:51:26;2.65;;;1.73;;
5961;SDS011;3007;50.770;0.250;2023-08-06T08:53:54;3.28;;;2.15;;
5961;SDS011;3007;50.770;0.250;2023-08-06T08:56:22;2.45;;;2.05;;
5961;SDS011;3007;50.770;0.250;2023-08-06T08:58:49;3.03;;;2.03;;
5961;SDS011;3007;50.770;0.250;2023-08-06T09:01:18;2.33;;;2.03;;
5961;SDS011;3007;50.770;0.250;2023-08-06T09:03:48;2.70;;;2.25;;
5961;SDS011;3007;50.770;0.250;2023-08-06T09:06:16;2.35;;;2.03;;
5961;SDS011;3007;50.770;0.250;2023-08-06T09:08:47;2.58;;;2.05;;
5961;SDS011;3007;50.770;0.250;2023-08-06T09:11:17;2.00;;;1.80;;
5961;SDS011;3007;50.770;0.250;2023-08-06T09:13:52;3.92;;;2.40;;
5961;SDS011;3007;50.770;0.250;2023-08-06T09:16:23;2.28;;;1.73;;
5961;SDS011;3007;50.770;0.250;2023-08-06T09:18:52;5.35;;;2.40;;
5961;SDS011;3007;50.770;0.250;2023-08-06T09:21:19;3.70;;;2.25;;
5961;SDS011;3007;50.770;0.250;2023-08-06T09:23:47;3.45;;;2.50;;
5961;SDS011;3007;50.770;0.250;2023-08-06T09:26:14;2.97;;;2.00;;
5961;SDS011;3007;50.770;0.250;2023-08-06T09:28:41;5.03;;;2.65;;
5961;SDS011;3007;50.770;0.250;2023-08-06T09:31:09;3.85;;;2.15;;
5961;SDS011;3007;50.770;0.250;2023-08-06T09:33:37;4.70;;;2.00;;
5961;SDS011;3007;50.770;0.250;2023-08-06T09:36:11;3.53;;;2.20;;
5961;SDS011;3007;50.770;0.250;2023-08-06T09:38:38;3.15;;;2.10;;
5961;SDS011;3007;50.770;0.250;2023-08-06T09:41:06;3.63;;;2.25;;
5961;SDS011;3007;50.770;0.250;2023-08-06T09:43:42;3.28;;;2.10;;
5961;SDS011;3007;50.770;0.250;2023-08-06T09:46:13;4.45;;;2.20;;
5961;SDS011;3007;50.770;0.250;2023-08-06T09:48:44;4.50;;;2.55;;
5961;SDS011;3007;50.770;0.250;2023-08-06T09:51:13;4.43;;;3.70;;
5961;SDS011;3007;50.770;0.250;2023-08-06T09:53:41;3.80;;;2.22;;
5961;SDS011;3007;50.770;0.250;2023-08-06T09:56:10;3.70;;;2.22;;
5961;SDS011;3007;50.770;0.250;2023-08-06T09:58:40;3.05;;;2.20;;
5961;SDS011;3007;50.770;0.250;2023-08-06T10:01:09;2.60;;;2.40;;
5961;SDS011;3007;50.770;0.250;2023-08-06T10:03:38;3.15;;;1.92;;
5961;SDS011;3007;50.770;0.250;2023-08-06T10:06:06;3.75;;;2.13;;
5961;SDS011;3007;50.770;0.250;2023-08-06T10:08:35;2.50;;;2.20;;
5961;SDS011;3007;50.770;0.250;2023-08-06T10:11:03;3.95;;;2.13;;
5961;SDS011;3007;50.770;0.250;2023-08-06T10:13:31;2.63;;;2.22;;
5961;SDS011;3007;50.770;0.250;2023-08-06T10:16:00;3.70;;;2.30;;
5961;SDS011;3007;50.770;0.250;2023-08-06T10:18:28;2.15;;;1.92;;
5961;SDS011;3007;50.770;0.250;2023-08-06T10:20:56;2.63;;;2.00;;
5961;SDS011;3007;50.770;0.250;2023-08-06T10:23:32;4.80;;;2.35;;
5961;SDS011;3007;50.770;0.250;2023-08-06T10:26:02;2.70;;;1.90;;
5961;SDS011;3007;50.770;0.250;2023-08-06T10:28:35;2.90;;;2.00;;
5961;SDS011;3007;50.770;0.250;2023-08-06T10:31:03;2.00;;;1.77;;
5961;SDS011;3007;50.770;0.250;2023-08-06T10:33:40;2.22;;;1.80;;
5961;SDS011;3007;50.770;0.250;2023-08-06T10:36:09;1.85;;;1.58;;
5961;SDS011;3007;50.770;0.250;2023-08-06T10:38:43;3.28;;;1.77;;
5961;SDS011;3007;50.770;0.250;2023-08-06T10:41:23;2.67;;;2.05;;
5961;SDS011;3007;50.770;0.250;2023-08-06T10:44:04;3.05;;;1.80;;
5961;SDS011;3007;50.770;0.250;2023-08-06T10:46:35;3.22;;;1.52;;
5961;SDS011;3007;50.770;0.250;2023-08-06T10:49:04;2.33;;;1.70;;
5961;SDS011;3007;50.770;0.250;2023-08-06T10:51:32;2.97;;;1.80;;
5961;SDS011;3007;50.770;0.250;2023-08-06T10:54:00;2.47;;;1.65;;
5961;SDS011;3007;50.770;0.250;2023-08-06T10:56:28;2.03;;;1.80;;
5961;SDS011;3007;50.770;0.250;2023-08-06T10:58:57;4.47;;;1.98;;
5961;SDS011;3007;50.770;0.250;2023-08-06T11:01:26;3.55;;;1.70;;
5961;SDS011;3007;50.770;0.250;2023-08-06T11:03:55;4.18;;;1.67;;
5961;SDS011;3007;50.770;0.250;2023-08-06T11:06:22;2.92;;;1.67;;
5961;SDS011;3007;50.770;0.250;2023-08-06T11:08:52;2.53;;;1.50;;
5961;SDS011;3007;50.770;0.250;2023-08-06T11:11:20;1.98;;;1.58;;
5961;SDS011;3007;50.770;0.250;2023-08-06T11:13:50;2.67;;;1.40;;
5961;SDS011;3007;50.770;0.250;2023-08-06T11:16:19;1.85;;;1.55;;
5961;SDS011;3007;50.770;0.250;2023-08-06T11:18:49;2.85;;;1.70;;
5961;SDS011;3007;50.770;0.250;2023-08-06T11:21:18;2.95;;;1.70;;
5961;SDS011;3007;50.770;0.250;2023-08-06T11:23:45;2.65;;;1.70;;
5961;SDS011;3007;50.770;0.250;2023-08-06T11:26:13;2.25;;;1.67;;
5961;SDS011;3007;50.770;0.250;2023-08-06T11:28:45;2.33;;;1.50;;
5961;SDS011;3007;50.770;0.250;2023-08-06T11:31:19;1.60;;;1.30;;
5961;SDS011;3007;50.770;0.250;2023-08-06T11:33:47;1.88;;;1.50;;
5961;SDS011;3007;50.770;0.250;2023-08-06T11:36:14;2.20;;;1.75;;
5961;SDS011;3007;50.770;0.250;2023-08-06T11:38:41;2.00;;;1.38;;
5961;SDS011;3007;50.770;0.250;2023-08-06T11:41:08;1.85;;;1.40;;
5961;SDS011;3007;50.770;0.250;2023-08-06T11:43:35;2.05;;;1.38;;
5961;SDS011;3007;50.770;0.250;2023-08-06T11:46:02;1.88;;;1.77;;
5961;SDS011;3007;50.770;0.250;2023-08-06T11:48:31;3.80;;;2.00;;
5961;SDS011;3007;50.770;0.250;2023-08-06T11:50:58;2.00;;;1.30;;
5961;SDS011;3007;50.770;0.250;2023-08-06T11:53:27;3.40;;;1.35;;
5961;SDS011;3007;50.770;0.250;2023-08-06T11:55:55;2.85;;;1.67;;
5961;SDS011;3007;50.770;0.250;2023-08-06T11:58:22;2.97;;;1.73;;
5961;SDS011;3007;50.770;0.250;2023-08-06T12:00:49;2.40;;;1.67;;
5961;SDS011;3007;50.770;0.250;2023-08-06T12:03:18;2.88;;;1.73;;
5961;SDS011;3007;50.770;0.250;2023-08-06T12:05:47;2.22;;;1.50;;
5961;SDS011;3007;50.770;0.250;2023-08-06T12:08:14;2.28;;;1.25;;
5961;SDS011;3007;50.770;0.250;2023-08-06T12:10:41;3.50;;;1.23;;
5961;SDS011;3007;50.770;0.250;2023-08-06T12:13:08;5.88;;;1.60;;
5961;SDS011;3007;50.770;0.250;2023-08-06T12:15:35;1.85;;;1.40;;
5961;SDS011;3007;50.770;0.250;2023-08-06T12:18:02;3.75;;;1.40;;
5961;SDS011;3007;50.770;0.250;2023-08-06T12:20:29;2.35;;;1.27;;
5961;SDS011;3007;50.770;0.250;2023-08-06T12:22:58;1.65;;;1.30;;
5961;SDS011;3007;50.770;0.250;2023-08-06T12:25:25;1.33;;;1.17;;
5961;SDS011;3007;50.770;0.250;2023-08-06T12:27:52;2.40;;;1.50;;
5961;SDS011;3007;50.770;0.250;2023-08-06T12:30:19;1.40;;;1.30;;
5961;SDS011;3007;50.770;0.250;2023-08-06T12:32:46;2.85;;;1.20;;
5961;SDS011;3007;50.770;0.250;2023-08-06T12:35:13;2.47;;;1.30;;
5961;SDS011;3007;50.770;0.250;2023-08-06T12:37:40;1.38;;;1.27;;
5961;SDS011;3007;50.770;0.250;2023-08-06T12:40:10;1.35;;;1.20;;
5961;SDS011;3007;50.770;0.250;2023-08-06T12:42:37;1.60;;;1.30;;
5961;SDS011;3007;50.770;0.250;2023-08-06T12:45:05;5.43;;;1.15;;
5961;SDS011;3007;50.770;0.250;2023-08-06T12:47:32;2.25;;;1.58;;
5961;SDS011;3007;50.770;0.250;2023-08-06T12:50:00;1.58;;;1.20;;
5961;SDS011;3007;50.770;0.250;2023-08-06T12:52:26;2.67;;;1.52;;
5961;SDS011;3007;50.770;0.250;2023-08-06T12:54:53;2.42;;;1.20;;
5961;SDS011;3007;50.770;0.250;2023-08-06T12:57:21;1.30;;;1.20;;
5961;SDS011;3007;50.770;0.250;2023-08-06T12:59:48;1.50;;;1.30;;
5961;SDS011;3007;50.770;0.250;2023-08-06T13:02:15;1.17;;;1.00;;
5961;SDS011;3007;50.770;0.250;2023-08-06T13:04:42;1.50;;;1.10;;
5961;SDS011;3007;50.770;0.250;2023-08-06T13:07:11;1.30;;;1.10;;
5961;SDS011;3007;50.770;0.250;2023-08-06T13:09:39;1.20;;;1.02;;
5961;SDS011;3007;50.770;0.250;2023-08-06T13:12:06;1.38;;;1.23;;
5961;SDS011;3007;50.770;0.250;2023-08-06T13:14:34;1.40;;;1.20;;
5961;SDS011;3007;50.770;0.250;2023-08-06T13:17:01;2.08;;;0.95;;
5961;SDS011;3007;50.770;0.250;2023-08-06T13:19:31;1.77;;;1.23;;
5961;SDS011;3007;50.770;0.250;2023-08-06T13:22:01;2.90;;;1.05;;
5961;SDS011;3007;50.770;0.250;2023-08-06T13:24:31;1.27;;;1.10;;
5961;SDS011;3007;50.770;0.250;2023-08-06T13:26:59;1.77;;;1.33;;
5961;SDS011;3007;50.770;0.250;2023-08-06T13:29:27;2.15;;;1.05;;
5961;SDS011;3007;50.770;0.250;2023-08-06T13:32:01;2.08;;;1.20;;
5961;SDS011;3007;50.770;0.250;2023-08-06T13:34:29;2.03;;;1.27;;
5961;SDS011;3007;50.770;0.250;2023-08-06T13:36:56;2.00;;;1.20;;
5961;SDS011;3007;50.770;0.250;2023-08-06T13:39:23;1.20;;;1.08;;
5961;SDS011;3007;50.770;0.250;2023-08-06T13:41:50;1.80;;;1.10;;
5961;SDS011;3007;50.770;0.250;2023-08-06T13:44:17;1.88;;;1.08;;
5961;SDS011;3007;50.770;0.250;2023-08-06T13:46:46;1.45;;;1.13;;
5961;SDS011;3007;50.770;0.250;2023-08-06T13:49:14;1.63;;;1.10;;
5961;SDS011;3007;50.770;0.250;2023-08-06T13:51:41;2.65;;;1.15;;
5961;SDS011;3007;50.770;0.250;2023-08-06T13:54:09;2.28;;;1.02;;
5961;SDS011;3007;50.770;0.250;2023-08-06T13:56:36;2.75;;;1.38;;
5961;SDS011;3007;50.770;0.250;2023-08-06T13:59:09;2.63;;;1.27;;
5961;SDS011;3007;50.770;0.250;2023-08-06T14:01:38;1.70;;;1.30;;
5961;SDS011;3007;50.770;0.250;2023-08-06T14:04:06;2.63;;;1.20;;
5961;SDS011;3007;50.770;0.250;2023-08-06T14:06:35;2.92;;;1.20;;
5961;SDS011;3007;50.770;0.250;2023-08-06T14:09:07;2.17;;;1.33;;
5961;SDS011;3007;50.770;0.250;2023-08-06T14:11:37;2.15;;;1.23;;
5961;SDS011;3007;50.770;0.250;2023-08-06T14:14:05;1.33;;;1.23;;
5961;SDS011;3007;50.770;0.250;2023-08-06T14:16:33;4.97;;;2.03;;
5961;SDS011;3007;50.770;0.250;2023-08-06T14:19:06;2.55;;;1.25;;
5961;SDS011;3007;50.770;0.250;2023-08-06T14:21:35;2.60;;;1.40;;
5961;SDS011;3007;50.770;0.250;2023-08-06T14:24:02;2.10;;;1.00;;
5961;SDS011;3007;50.770;0.250;2023-08-06T14:26:29;1.20;;;1.10;;
5961;SDS011;3007;50.770;0.250;2023-08-06T14:28:56;1.50;;;1.30;;
5961;SDS011;3007;50.770;0.250;2023-08-06T14:31:24;2.20;;;0.98;;
5961;SDS011;3007;50.770;0.250;2023-08-06T14:33:52;1.38;;;1.17;;
5961;SDS011;3007;50.770;0.250;2023-08-06T14:36:19;1.30;;;1.17;;
5961;SDS011;3007;50.770;0.250;2023-08-06T14:38:49;1.00;;;0.90;;
5961;SDS011;3007;50.770;0.250;2023-08-06T14:41:20;1.17;;;1.00;;
5961;SDS011;3007;50.770;0.250;2023-08-06T14:43:47;1.38;;;1.27;;
5961;SDS011;3007;50.770;0.250;2023-08-06T14:46:14;1.45;;;1.02;;
5961;SDS011;3007;50.770;0.250;2023-08-06T14:48:41;1.65;;;1.00;;
5961;SDS011;3007;50.770;0.250;2023-08-06T14:51:08;2.03;;;1.40;;
5961;SDS011;3007;50.770;0.250;2023-08-06T14:53:35;1.95;;;1.20;;
5961;SDS011;3007;50.770;0.250;2023-08-06T14:56:04;3.20;;;1.40;;
5961;SDS011;3007;50.770;0.250;2023-08-06T14:58:30;1.30;;;0.90;;
5961;SDS011;3007;50.770;0.250;2023-08-06T15:00:57;1.50;;;1.17;;
5961;SDS011;3007;50.770;0.250;2023-08-06T15:03:24;1.88;;;1.30;;
5961;SDS011;3007;50.770;0.250;2023-08-06T15:05:53;1.48;;;0.90;;
5961;SDS011;3007;50.770;0.250;2023-08-06T15:08:20;1.75;;;1.27;;
5961;SDS011;3007;50.770;0.250;2023-08-06T15:10:49;1.85;;;1.30;;
5961;SDS011;3007;50.770;0.250;2023-08-06T15:13:18;1.20;;;1.10;;
5961;SDS011;3007;50.770;0.250;2023-08-06T15:15:46;1.60;;;1.10;;
5961;SDS011;3007;50.770;0.250;2023-08-06T15:18:13;1.20;;;1.00;;
5961;SDS011;3007;50.770;0.250;2023-08-06T15:20:40;1.40;;;1.30;;